sensor_id;sensor_type;location;lat;lon;timestamp;P1;durP1;ratioP1;P2;durP2;ratioP2
9481;SDS011;4779;48.062;11.672;2023-04-25T00:01:45;2.30;;;1.93;;
9481;SDS011;4779;48.062;11.672;2023-04-25T00:04:14;2.13;;;1.70;;
9481;SDS011;4779;48.062;11.672;2023-04-25T00:06:40;1.80;;;1.70;;
9481;SDS011;4779;48.062;11.672;2023-04-25T00:09:07;2.33;;;2.03;;
9481;SDS011;4779;48.062;11.672;2023-04-25T00:11:36;3.40;;;1.97;;
9481;SDS011;4779;48.062;11.672;2023-04-25T00:14:03;2.17;;;1.97;;
9481;SDS011;4779;48.062;11.672;2023-04-25T00:16:31;1.70;;;1.50;;
9481;SDS011;4779;48.062;11.672;2023-04-25T00:18:59;1.77;;;1.67;;
9481;SDS011;4779;48.062;11.672;2023-04-25T00:21:28;2.47;;;1.80;;
9481;SDS011;4779;48.062;11.672;2023-04-25T00:23:56;2.37;;;1.47;;
9481;SDS011;4779;48.062;11.672;2023-04-25T00:26:23;2.33;;;1.93;;
9481;SDS011;4779;48.062;11.672;2023-04-25T00:28:50;1.80;;;1.70;;
9481;SDS011;4779;48.062;11.672;2023-04-25T00:31:17;2.50;;;2.30;;
9481;SDS011;4779;48.062;11.672;2023-04-25T00:33:44;3.60;;;1.73;;
9481;SDS011;4779;48.062;11.672;2023-04-25T00:36:10;1.83;;;1.73;;
9481;SDS011;4779;48.062;11.672;2023-04-25T00:38:39;1.73;;;1.63;;
9481;SDS011;4779;48.062;11.672;2023-04-25T00:41:07;2.20;;;2.00;;
9481;SDS011;4779;48.062;11.672;2023-04-25T00:43:34;2.10;;;1.90;;
9481;SDS011;4779;48.062;11.672;2023-04-25T00:46:03;3.07;;;2.10;;
9481;SDS011;4779;48.062;11.672;2023-04-25T00:48:30;2.33;;;2.13;;
9481;SDS011;4779;48.062;11.672;2023-04-25T00:50:57;2.37;;;1.60;;
9481;SDS011;4779;48.062;11.672;2023-04-25T00:53:26;2.97;;;2.00;;
9481;SDS011;4779;48.062;11.672;2023-04-25T00:55:55;2.27;;;2.00;;
9481;SDS011;4779;48.062;11.672;2023-04-25T00:58:22;2.97;;;2.10;;
9481;SDS011;4779;48.062;11.672;2023-04-25T01:00:50;2.10;;;1.90;;
9481;SDS011;4779;48.062;11.672;2023-04-25T01:03:18;2.40;;;2.10;;
9481;SDS011;4779;48.062;11.672;2023-04-25T01:05:45;2.87;;;2.00;;
9481;SDS011;4779;48.062;11.672;2023-04-25T01:08:13;2.07;;;1.90;;
9481;SDS011;4779;48.062;11.672;2023-04-25T01:10:40;2.13;;;1.93;;
9481;SDS011;4779;48.062;11.672;2023-04-25T01:13:08;2.37;;;1.90;;
9481;SDS011;4779;48.062;11.672;2023-04-25T01:15:35;2.63;;;2.20;;
9481;SDS011;4779;48.062;11.672;2023-04-25T01:18:03;2.50;;;2.20;;
9481;SDS011;4779;48.062;11.672;2023-04-25T01:20:30;2.27;;;2.07;;
9481;SDS011;4779;48.062;11.672;2023-04-25T01:23:00;3.33;;;2.10;;
9481;SDS011;4779;48.062;11.672;2023-04-25T01:25:28;2.27;;;2.10;;
9481;SDS011;4779;48.062;11.672;2023-04-25T01:27:55;3.43;;;1.83;;
9481;SDS011;4779;48.062;11.672;2023-04-25T02:15:13;2.30;;;2.10;;
9481;SDS011;4779;48.062;11.672;2023-04-25T02:17:40;4.30;;;2.40;;
9481;SDS011;4779;48.062;11.672;2023-04-25T02:20:07;2.43;;;2.23;;
9481;SDS011;4779;48.062;11.672;2023-04-25T02:22:35;2.97;;;2.20;;
9481;SDS011;4779;48.062;11.672;2023-04-25T02:25:02;2.30;;;2.10;;
9481;SDS011;4779;48.062;11.672;2023-04-25T02:27:30;2.30;;;1.80;;
9481;SDS011;4779;48.062;11.672;2023-04-25T02:29:57;2.13;;;1.90;;
9481;SDS011;4779;48.062;11.672;2023-04-25T02:32:25;2.33;;;1.90;;
9481;SDS011;4779;48.062;11.672;2023-04-25T02:34:52;2.10;;;1.90;;
9481;SDS011;4779;48.062;11.672;2023-04-25T02:37:19;2.80;;;1.90;;
9481;SDS011;4779;48.062;11.672;2023-04-25T02:39:46;3.07;;;1.90;;
9481;SDS011;4779;48.062;11.672;2023-04-25T02:42:13;2.40;;;1.60;;
9481;SDS011;4779;48.062;11.672;2023-04-25T02:44:40;3.63;;;1.83;;
9481;SDS011;4779;48.062;11.672;2023-04-25T02:47:07;2.43;;;2.03;;
9481;SDS011;4779;48.062;11.672;2023-04-25T02:49:35;2.40;;;1.90;;
9481;SDS011;4779;48.062;11.672;2023-04-25T02:52:02;2.23;;;2.03;;
9481;SDS011;4779;48.062;11.672;2023-04-25T02:54:29;1.90;;;1.80;;
9481;SDS011;4779;48.062;11.672;2023-04-25T02:56:56;2.63;;;1.90;;
9481;SDS011;4779;48.062;11.672;2023-04-25T02:59:23;3.67;;;1.97;;
9481;SDS011;4779;48.062;11.672;2023-04-25T03:01:50;2.43;;;2.10;;
9481;SDS011;4779;48.062;11.672;2023-04-25T03:04:17;2.73;;;2.10;;
9481;SDS011;4779;48.062;11.672;2023-04-25T03:06:47;1.97;;;1.87;;
9481;SDS011;4779;48.062;11.672;2023-04-25T03:09:14;2.20;;;1.70;;
9481;SDS011;4779;48.062;11.672;2023-04-25T03:11:41;2.40;;;2.20;;
9481;SDS011;4779;48.062;11.672;2023-04-25T03:14:08;3.70;;;1.90;;
9481;SDS011;4779;48.062;11.672;2023-04-25T03:16:35;2.37;;;1.90;;
9481;SDS011;4779;48.062;11.672;2023-04-25T03:19:02;2.60;;;2.00;;
9481;SDS011;4779;48.062;11.672;2023-04-25T03:21:29;3.47;;;2.20;;
9481;SDS011;4779;48.062;11.672;2023-04-25T03:23:58;2.53;;;2.07;;
9481;SDS011;4779;48.062;11.672;2023-04-25T03:26:26;4.17;;;2.30;;
9481;SDS011;4779;48.062;11.672;2023-04-25T03:28:53;2.73;;;2.30;;
9481;SDS011;4779;48.062;11.672;2023-04-25T03:31:20;2.00;;;1.77;;
9481;SDS011;4779;48.062;11.672;2023-04-25T03:33:47;4.07;;;2.60;;
9481;SDS011;4779;48.062;11.672;2023-04-25T03:36:14;2.43;;;1.90;;
9481;SDS011;4779;48.062;11.672;2023-04-25T03:38:41;2.20;;;2.00;;
9481;SDS011;4779;48.062;11.672;2023-04-25T03:41:10;2.50;;;1.97;;
9481;SDS011;4779;48.062;11.672;2023-04-25T03:43:36;2.83;;;2.10;;
9481;SDS011;4779;48.062;11.672;2023-04-25T03:46:03;3.03;;;2.10;;
9481;SDS011;4779;48.062;11.672;2023-04-25T03:48:30;3.30;;;2.30;;
9481;SDS011;4779;48.062;11.672;2023-04-25T03:50:57;2.57;;;2.10;;
9481;SDS011;4779;48.062;11.672;2023-04-25T03:53:25;4.90;;;2.10;;
9481;SDS011;4779;48.062;11.672;2023-04-25T03:55:52;3.93;;;2.13;;
9481;SDS011;4779;48.062;11.672;2023-04-25T03:58:20;2.50;;;2.10;;
9481;SDS011;4779;48.062;11.672;2023-04-25T04:00:48;2.67;;;2.03;;
9481;SDS011;4779;48.062;11.672;2023-04-25T04:03:15;4.90;;;2.63;;
9481;SDS011;4779;48.062;11.672;2023-04-25T04:05:41;3.80;;;2.40;;
9481;SDS011;4779;48.062;11.672;2023-04-25T04:08:08;3.70;;;2.30;;
9481;SDS011;4779;48.062;11.672;2023-04-25T04:10:35;4.57;;;2.33;;
9481;SDS011;4779;48.062;11.672;2023-04-25T04:13:02;3.20;;;2.20;;
9481;SDS011;4779;48.062;11.672;2023-04-25T04:15:30;2.80;;;2.10;;
9481;SDS011;4779;48.062;11.672;2023-04-25T04:17:58;3.93;;;2.17;;
9481;SDS011;4779;48.062;11.672;2023-04-25T04:20:27;2.63;;;2.03;;
9481;SDS011;4779;48.062;11.672;2023-04-25T04:22:55;2.30;;;2.10;;
9481;SDS011;4779;48.062;11.672;2023-04-25T04:25:22;2.37;;;1.77;;
9481;SDS011;4779;48.062;11.672;2023-04-25T04:27:49;2.00;;;1.80;;
9481;SDS011;4779;48.062;11.672;2023-04-25T04:30:19;3.27;;;1.90;;
9481;SDS011;4779;48.062;11.672;2023-04-25T04:32:50;2.13;;;1.80;;
9481;SDS011;4779;48.062;11.672;2023-04-25T04:35:17;2.20;;;2.00;;
9481;SDS011;4779;48.062;11.672;2023-04-25T04:37:44;2.67;;;2.00;;
9481;SDS011;4779;48.062;11.672;2023-04-25T04:40:11;3.03;;;2.30;;
9481;SDS011;4779;48.062;11.672;2023-04-25T04:42:40;2.37;;;1.93;;
9481;SDS011;4779;48.062;11.672;2023-04-25T04:45:07;2.57;;;1.87;;
9481;SDS011;4779;48.062;11.672;2023-04-25T04:47:35;2.00;;;1.80;;
9481;SDS011;4779;48.062;11.672;2023-04-25T04:50:06;2.43;;;2.10;;
9481;SDS011;4779;48.062;11.672;2023-04-25T04:52:34;2.93;;;2.23;;
9481;SDS011;4779;48.062;11.672;2023-04-25T04:55:01;3.00;;;2.30;;
9481;SDS011;4779;48.062;11.672;2023-04-25T04:57:28;1.93;;;1.67;;
9481;SDS011;4779;48.062;11.672;2023-04-25T04:59:56;2.43;;;2.20;;
9481;SDS011;4779;48.062;11.672;2023-04-25T05:02:23;2.57;;;2.20;;
9481;SDS011;4779;48.062;11.672;2023-04-25T05:04:50;2.70;;;2.20;;
9481;SDS011;4779;48.062;11.672;2023-04-25T05:07:18;2.63;;;2.00;;
9481;SDS011;4779;48.062;11.672;2023-04-25T05:09:46;2.40;;;2.20;;
9481;SDS011;4779;48.062;11.672;2023-04-25T05:12:13;5.03;;;2.50;;
9481;SDS011;4779;48.062;11.672;2023-04-25T05:14:39;2.93;;;2.20;;
9481;SDS011;4779;48.062;11.672;2023-04-25T05:17:06;2.53;;;2.30;;
9481;SDS011;4779;48.062;11.672;2023-04-25T05:19:33;2.40;;;2.20;;
9481;SDS011;4779;48.062;11.672;2023-04-25T05:22:00;4.50;;;2.50;;
9481;SDS011;4779;48.062;11.672;2023-04-25T05:24:29;2.90;;;2.40;;
9481;SDS011;4779;48.062;11.672;2023-04-25T05:26:56;2.83;;;2.53;;
9481;SDS011;4779;48.062;11.672;2023-04-25T05:29:23;3.73;;;2.60;;
9481;SDS011;4779;48.062;11.672;2023-04-25T05:31:50;2.93;;;2.30;;
9481;SDS011;4779;48.062;11.672;2023-04-25T05:34:18;3.70;;;2.80;;
9481;SDS011;4779;48.062;11.672;2023-04-25T05:36:45;2.73;;;2.30;;
9481;SDS011;4779;48.062;11.672;2023-04-25T05:39:13;3.03;;;2.30;;
9481;SDS011;4779;48.062;11.672;2023-04-25T05:41:41;2.73;;;2.03;;
9481;SDS011;4779;48.062;11.672;2023-04-25T05:44:08;3.17;;;2.30;;
9481;SDS011;4779;48.062;11.672;2023-04-25T05:46:35;4.10;;;2.10;;
9481;SDS011;4779;48.062;11.672;2023-04-25T05:49:02;2.40;;;2.20;;
9481;SDS011;4779;48.062;11.672;2023-04-25T05:51:29;3.83;;;2.20;;
9481;SDS011;4779;48.062;11.672;2023-04-25T05:53:56;3.33;;;2.30;;
9481;SDS011;4779;48.062;11.672;2023-04-25T05:56:23;6.33;;;2.67;;
9481;SDS011;4779;48.062;11.672;2023-04-25T05:58:52;2.30;;;2.10;;
9481;SDS011;4779;48.062;11.672;2023-04-25T06:01:19;3.13;;;2.17;;
9481;SDS011;4779;48.062;11.672;2023-04-25T06:03:45;3.30;;;2.17;;
9481;SDS011;4779;48.062;11.672;2023-04-25T06:06:12;4.47;;;2.40;;
9481;SDS011;4779;48.062;11.672;2023-04-25T06:08:39;2.20;;;2.00;;
9481;SDS011;4779;48.062;11.672;2023-04-25T06:11:06;2.97;;;2.67;;
9481;SDS011;4779;48.062;11.672;2023-04-25T06:13:33;4.57;;;2.67;;
9481;SDS011;4779;48.062;11.672;2023-04-25T06:16:01;4.50;;;2.50;;
9481;SDS011;4779;48.062;11.672;2023-04-25T06:18:28;4.40;;;2.60;;
9481;SDS011;4779;48.062;11.672;2023-04-25T06:20:55;4.30;;;2.47;;
9481;SDS011;4779;48.062;11.672;2023-04-25T06:23:22;4.30;;;2.40;;
9481;SDS011;4779;48.062;11.672;2023-04-25T06:25:49;2.97;;;2.20;;
9481;SDS011;4779;48.062;11.672;2023-04-25T06:28:16;3.93;;;2.83;;
9481;SDS011;4779;48.062;11.672;2023-04-25T06:30:43;3.53;;;2.40;;
9481;SDS011;4779;48.062;11.672;2023-04-25T06:33:11;4.00;;;2.40;;
9481;SDS011;4779;48.062;11.672;2023-04-25T06:35:38;3.07;;;2.63;;
9481;SDS011;4779;48.062;11.672;2023-04-25T06:38:05;3.00;;;2.13;;
9481;SDS011;4779;48.062;11.672;2023-04-25T06:40:32;5.00;;;2.40;;
9481;SDS011;4779;48.062;11.672;2023-04-25T06:42:59;3.63;;;2.10;;
9481;SDS011;4779;48.062;11.672;2023-04-25T06:45:26;2.97;;;2.27;;
9481;SDS011;4779;48.062;11.672;2023-04-25T06:47:53;3.37;;;2.40;;
9481;SDS011;4779;48.062;11.672;2023-04-25T06:50:21;3.13;;;2.60;;
9481;SDS011;4779;48.062;11.672;2023-04-25T06:52:48;3.97;;;3.20;;
9481;SDS011;4779;48.062;11.672;2023-04-25T06:55:15;3.20;;;2.50;;
9481;SDS011;4779;48.062;11.672;2023-04-25T06:57:42;3.50;;;2.30;;
9481;SDS011;4779;48.062;11.672;2023-04-25T07:00:09;5.20;;;2.63;;
9481;SDS011;4779;48.062;11.672;2023-04-25T07:02:37;2.87;;;2.63;;
9481;SDS011;4779;48.062;11.672;2023-04-25T07:05:04;2.80;;;2.60;;
9481;SDS011;4779;48.062;11.672;2023-04-25T07:07:32;3.53;;;2.37;;
9481;SDS011;4779;48.062;11.672;2023-04-25T07:09:59;4.93;;;2.80;;
9481;SDS011;4779;48.062;11.672;2023-04-25T07:12:26;4.47;;;3.00;;
9481;SDS011;4779;48.062;11.672;2023-04-25T07:14:53;4.00;;;2.67;;
9481;SDS011;4779;48.062;11.672;2023-04-25T07:17:20;4.87;;;2.60;;
9481;SDS011;4779;48.062;11.672;2023-04-25T07:19:47;2.90;;;2.50;;
9481;SDS011;4779;48.062;11.672;2023-04-25T07:22:13;3.47;;;2.40;;
9481;SDS011;4779;48.062;11.672;2023-04-25T07:24:42;3.07;;;2.30;;
9481;SDS011;4779;48.062;11.672;2023-04-25T07:27:12;3.30;;;2.40;;
9481;SDS011;4779;48.062;11.672;2023-04-25T07:29:39;5.73;;;2.50;;
9481;SDS011;4779;48.062;11.672;2023-04-25T07:32:06;4.47;;;2.50;;
9481;SDS011;4779;48.062;11.672;2023-04-25T07:34:35;3.83;;;2.30;;
9481;SDS011;4779;48.062;11.672;2023-04-25T07:37:03;3.97;;;2.47;;
9481;SDS011;4779;48.062;11.672;2023-04-25T07:39:30;2.73;;;2.47;;
9481;SDS011;4779;48.062;11.672;2023-04-25T07:41:58;5.80;;;2.73;;
9481;SDS011;4779;48.062;11.672;2023-04-25T07:44:27;2.40;;;2.13;;
9481;SDS011;4779;48.062;11.672;2023-04-25T07:46:55;4.97;;;2.60;;
9481;SDS011;4779;48.062;11.672;2023-04-25T07:49:22;4.67;;;2.77;;
9481;SDS011;4779;48.062;11.672;2023-04-25T07:51:49;4.37;;;2.57;;
9481;SDS011;4779;48.062;11.672;2023-04-25T07:54:16;6.57;;;3.23;;
9481;SDS011;4779;48.062;11.672;2023-04-25T07:56:43;4.87;;;2.80;;
9481;SDS011;4779;48.062;11.672;2023-04-25T07:59:12;5.27;;;2.90;;
9481;SDS011;4779;48.062;11.672;2023-04-25T08:01:38;3.13;;;2.53;;
9481;SDS011;4779;48.062;11.672;2023-04-25T08:04:05;3.03;;;2.73;;
9481;SDS011;4779;48.062;11.672;2023-04-25T08:06:32;2.60;;;2.20;;
9481;SDS011;4779;48.062;11.672;2023-04-25T08:09:00;5.87;;;3.17;;
9481;SDS011;4779;48.062;11.672;2023-04-25T08:11:26;3.97;;;2.30;;
9481;SDS011;4779;48.062;11.672;2023-04-25T08:13:53;3.13;;;2.30;;
9481;SDS011;4779;48.062;11.672;2023-04-25T08:16:21;4.07;;;2.10;;
9481;SDS011;4779;48.062;11.672;2023-04-25T08:18:49;3.20;;;2.33;;
9481;SDS011;4779;48.062;11.672;2023-04-25T08:21:16;2.73;;;2.10;;
9481;SDS011;4779;48.062;11.672;2023-04-25T08:23:43;5.57;;;2.10;;
9481;SDS011;4779;48.062;11.672;2023-04-25T08:26:10;2.40;;;1.97;;
9481;SDS011;4779;48.062;11.672;2023-04-25T08:28:37;2.70;;;1.97;;
9481;SDS011;4779;48.062;11.672;2023-04-25T08:31:04;2.80;;;1.93;;
9481;SDS011;4779;48.062;11.672;2023-04-25T08:33:32;3.63;;;1.83;;
9481;SDS011;4779;48.062;11.672;2023-04-25T08:35:59;2.27;;;1.83;;
9481;SDS011;4779;48.062;11.672;2023-04-25T08:38:26;2.80;;;1.77;;
9481;SDS011;4779;48.062;11.672;2023-04-25T08:40:53;2.53;;;1.70;;
9481;SDS011;4779;48.062;11.672;2023-04-25T08:43:22;2.20;;;1.87;;
9481;SDS011;4779;48.062;11.672;2023-04-25T08:45:50;1.93;;;1.70;;
9481;SDS011;4779;48.062;11.672;2023-04-25T08:48:19;3.50;;;1.70;;
9481;SDS011;4779;48.062;11.672;2023-04-25T08:50:52;3.00;;;2.00;;
9481;SDS011;4779;48.062;11.672;2023-04-25T08:53:22;3.20;;;2.20;;
9481;SDS011;4779;48.062;11.672;2023-04-25T08:55:52;2.67;;;1.80;;
9481;SDS011;4779;48.062;11.672;2023-04-25T08:58:20;3.87;;;2.10;;
9481;SDS011;4779;48.062;11.672;2023-04-25T09:00:48;2.47;;;2.10;;
9481;SDS011;4779;48.062;11.672;2023-04-25T09:03:16;2.50;;;2.17;;
9481;SDS011;4779;48.062;11.672;2023-04-25T09:05:43;2.97;;;1.83;;
9481;SDS011;4779;48.062;11.672;2023-04-25T09:08:12;4.53;;;2.43;;
9481;SDS011;4779;48.062;11.672;2023-04-25T09:10:39;2.47;;;1.97;;
9481;SDS011;4779;48.062;11.672;2023-04-25T09:13:07;3.37;;;2.30;;
9481;SDS011;4779;48.062;11.672;2023-04-25T09:15:46;2.67;;;2.10;;
9481;SDS011;4779;48.062;11.672;2023-04-25T09:18:21;3.60;;;2.20;;
9481;SDS011;4779;48.062;11.672;2023-04-25T09:20:50;3.60;;;2.10;;
9481;SDS011;4779;48.062;11.672;2023-04-25T09:23:19;3.90;;;2.17;;
9481;SDS011;4779;48.062;11.672;2023-04-25T09:25:47;3.47;;;2.13;;
9481;SDS011;4779;48.062;11.672;2023-04-25T09:28:14;2.27;;;1.73;;
9481;SDS011;4779;48.062;11.672;2023-04-25T09:30:41;3.57;;;2.40;;
9481;SDS011;4779;48.062;11.672;2023-04-25T09:33:10;2.40;;;2.00;;
9481;SDS011;4779;48.062;11.672;2023-04-25T09:35:38;2.93;;;2.30;;
9481;SDS011;4779;48.062;11.672;2023-04-25T09:38:09;2.37;;;1.80;;
9481;SDS011;4779;48.062;11.672;2023-04-25T09:40:41;3.57;;;1.90;;
9481;SDS011;4779;48.062;11.672;2023-04-25T09:43:09;2.47;;;1.70;;
9481;SDS011;4779;48.062;11.672;2023-04-25T09:45:40;1.90;;;1.57;;
9481;SDS011;4779;48.062;11.672;2023-04-25T09:48:11;1.93;;;1.50;;
9481;SDS011;4779;48.062;11.672;2023-04-25T09:50:38;1.90;;;1.70;;
9481;SDS011;4779;48.062;11.672;2023-04-25T09:53:05;2.93;;;1.60;;
9481;SDS011;4779;48.062;11.672;2023-04-25T09:55:32;3.93;;;1.63;;
9481;SDS011;4779;48.062;11.672;2023-04-25T09:58:03;2.00;;;1.60;;
9481;SDS011;4779;48.062;11.672;2023-04-25T10:00:32;2.43;;;1.63;;
9481;SDS011;4779;48.062;11.672;2023-04-25T10:03:00;2.47;;;1.90;;
9481;SDS011;4779;48.062;11.672;2023-04-25T10:05:29;2.90;;;1.90;;
9481;SDS011;4779;48.062;11.672;2023-04-25T10:07:58;2.40;;;1.33;;
9481;SDS011;4779;48.062;11.672;2023-04-25T10:10:28;3.00;;;1.30;;
9481;SDS011;4779;48.062;11.672;2023-04-25T10:13:01;2.57;;;1.67;;
9481;SDS011;4779;48.062;11.672;2023-04-25T10:15:32;2.37;;;1.77;;
9481;SDS011;4779;48.062;11.672;2023-04-25T10:18:01;2.67;;;1.50;;
9481;SDS011;4779;48.062;11.672;2023-04-25T10:20:29;1.53;;;1.40;;
9481;SDS011;4779;48.062;11.672;2023-04-25T10:22:57;1.53;;;1.20;;
9481;SDS011;4779;48.062;11.672;2023-04-25T10:25:29;1.77;;;1.40;;
9481;SDS011;4779;48.062;11.672;2023-04-25T10:27:57;2.97;;;1.50;;
9481;SDS011;4779;48.062;11.672;2023-04-25T10:30:28;3.07;;;1.90;;
9481;SDS011;4779;48.062;11.672;2023-04-25T10:32:55;2.23;;;1.60;;
9481;SDS011;4779;48.062;11.672;2023-04-25T10:35:24;1.50;;;1.40;;
9481;SDS011;4779;48.062;11.672;2023-04-25T10:37:56;1.90;;;1.50;;
9481;SDS011;4779;48.062;11.672;2023-04-25T10:40:24;2.23;;;1.60;;
9481;SDS011;4779;48.062;11.672;2023-04-25T10:42:51;1.40;;;1.30;;
9481;SDS011;4779;48.062;11.672;2023-04-25T10:45:19;3.05;;;1.58;;
9481;SDS011;4779;48.062;11.672;2023-04-25T10:47:48;3.55;;;1.60;;
9481;SDS011;4779;48.062;11.672;2023-04-25T10:50:15;2.47;;;1.40;;
9481;SDS011;4779;48.062;11.672;2023-04-25T10:52:42;1.80;;;1.38;;
9481;SDS011;4779;48.062;11.672;2023-04-25T10:55:10;1.75;;;1.33;;
9481;SDS011;4779;48.062;11.672;2023-04-25T10:57:37;2.35;;;1.45;;
9481;SDS011;4779;48.062;11.672;2023-04-25T11:00:10;1.93;;;1.03;;
9481;SDS011;4779;48.062;11.672;2023-04-25T11:02:43;1.70;;;1.23;;
9481;SDS011;4779;48.062;11.672;2023-04-25T11:05:18;2.20;;;1.10;;
9481;SDS011;4779;48.062;11.672;2023-04-25T11:07:49;1.50;;;1.27;;
9481;SDS011;4779;48.062;11.672;2023-04-25T11:10:18;1.43;;;1.17;;
9481;SDS011;4779;48.062;11.672;2023-04-25T11:12:48;1.30;;;1.20;;
9481;SDS011;4779;48.062;11.672;2023-04-25T11:15:14;2.27;;;1.37;;
9481;SDS011;4779;48.062;11.672;2023-04-25T11:17:41;1.40;;;1.30;;
9481;SDS011;4779;48.062;11.672;2023-04-25T11:20:11;2.00;;;1.43;;
9481;SDS011;4779;48.062;11.672;2023-04-25T11:22:40;2.17;;;1.50;;
9481;SDS011;4779;48.062;11.672;2023-04-25T11:25:08;3.67;;;1.67;;
9481;SDS011;4779;48.062;11.672;2023-04-25T11:27:48;2.73;;;1.50;;
9481;SDS011;4779;48.062;11.672;2023-04-25T11:30:16;2.00;;;1.40;;
9481;SDS011;4779;48.062;11.672;2023-04-25T11:32:43;1.73;;;1.63;;
9481;SDS011;4779;48.062;11.672;2023-04-25T11:35:11;1.93;;;1.70;;
9481;SDS011;4779;48.062;11.672;2023-04-25T11:37:40;2.20;;;2.00;;
9481;SDS011;4779;48.062;11.672;2023-04-25T11:40:08;2.00;;;1.80;;
9481;SDS011;4779;48.062;11.672;2023-04-25T11:42:36;2.13;;;1.80;;
9481;SDS011;4779;48.062;11.672;2023-04-25T11:45:05;2.60;;;1.70;;
9481;SDS011;4779;48.062;11.672;2023-04-25T11:47:33;1.53;;;1.40;;
9481;SDS011;4779;48.062;11.672;2023-04-25T11:50:00;1.50;;;1.40;;
9481;SDS011;4779;48.062;11.672;2023-04-25T11:55:13;2.20;;;2.00;;
9481;SDS011;4779;48.062;11.672;2023-04-25T11:57:41;4.20;;;1.80;;
9481;SDS011;4779;48.062;11.672;2023-04-25T12:00:10;1.93;;;1.67;;
9481;SDS011;4779;48.062;11.672;2023-04-25T12:02:41;2.03;;;1.83;;
9481;SDS011;4779;48.062;11.672;2023-04-25T12:05:10;1.70;;;1.60;;
9481;SDS011;4779;48.062;11.672;2023-04-25T12:07:38;1.80;;;1.60;;
9481;SDS011;4779;48.062;11.672;2023-04-25T12:10:10;1.50;;;1.40;;
9481;SDS011;4779;48.062;11.672;2023-04-25T12:12:41;2.30;;;1.80;;
9481;SDS011;4779;48.062;11.672;2023-04-25T12:15:09;2.23;;;1.77;;
9481;SDS011;4779;48.062;11.672;2023-04-25T12:17:40;2.33;;;2.00;;
9481;SDS011;4779;48.062;11.672;2023-04-25T12:20:09;2.00;;;1.90;;
9481;SDS011;4779;48.062;11.672;2023-04-25T12:22:40;2.30;;;2.10;;
9481;SDS011;4779;48.062;11.672;2023-04-25T12:25:11;2.30;;;2.10;;
9481;SDS011;4779;48.062;11.672;2023-04-25T12:27:38;4.00;;;2.47;;
9481;SDS011;4779;48.062;11.672;2023-04-25T12:30:08;3.13;;;2.27;;
9481;SDS011;4779;48.062;11.672;2023-04-25T12:32:36;2.47;;;2.20;;
9481;SDS011;4779;48.062;11.672;2023-04-25T12:35:04;3.00;;;2.40;;
9481;SDS011;4779;48.062;11.672;2023-04-25T12:37:32;3.47;;;2.30;;
9481;SDS011;4779;48.062;11.672;2023-04-25T12:39:59;2.57;;;2.37;;
9481;SDS011;4779;48.062;11.672;2023-04-25T12:42:28;2.37;;;2.07;;
9481;SDS011;4779;48.062;11.672;2023-04-25T12:44:54;3.63;;;2.40;;
9481;SDS011;4779;48.062;11.672;2023-04-25T12:47:21;2.03;;;1.80;;
9481;SDS011;4779;48.062;11.672;2023-04-25T12:49:48;1.60;;;1.50;;
9481;SDS011;4779;48.062;11.672;2023-04-25T12:52:15;2.03;;;1.83;;
9481;SDS011;4779;48.062;11.672;2023-04-25T12:54:42;2.80;;;1.50;;
9481;SDS011;4779;48.062;11.672;2023-04-25T12:57:09;2.30;;;1.20;;
9481;SDS011;4779;48.062;11.672;2023-04-25T12:59:37;1.30;;;1.20;;
9481;SDS011;4779;48.062;11.672;2023-04-25T13:02:04;1.90;;;0.97;;
9481;SDS011;4779;48.062;11.672;2023-04-25T13:04:31;1.30;;;1.07;;
9481;SDS011;4779;48.062;11.672;2023-04-25T13:06:58;1.20;;;0.90;;
9481;SDS011;4779;48.062;11.672;2023-04-25T13:09:25;0.90;;;0.90;;
9481;SDS011;4779;48.062;11.672;2023-04-25T13:11:52;1.60;;;1.00;;
9481;SDS011;4779;48.062;11.672;2023-04-25T13:14:19;1.37;;;1.27;;
9481;SDS011;4779;48.062;11.672;2023-04-25T13:16:47;1.00;;;1.00;;
9481;SDS011;4779;48.062;11.672;2023-04-25T13:19:14;0.80;;;0.80;;
9481;SDS011;4779;48.062;11.672;2023-04-25T13:21:41;1.60;;;0.90;;
9481;SDS011;4779;48.062;11.672;2023-04-25T13:24:07;1.27;;;0.90;;
9481;SDS011;4779;48.062;11.672;2023-04-25T13:26:34;1.33;;;1.00;;
9481;SDS011;4779;48.062;11.672;2023-04-25T13:29:02;0.80;;;0.67;;
9481;SDS011;4779;48.062;11.672;2023-04-25T13:31:29;0.67;;;0.67;;
9481;SDS011;4779;48.062;11.672;2023-04-25T13:33:58;0.67;;;0.67;;
9481;SDS011;4779;48.062;11.672;2023-04-25T13:36:25;1.03;;;0.80;;
9481;SDS011;4779;48.062;11.672;2023-04-25T13:38:52;1.00;;;0.90;;
9481;SDS011;4779;48.062;11.672;2023-04-25T13:41:19;1.37;;;0.97;;
9481;SDS011;4779;48.062;11.672;2023-04-25T13:43:46;2.57;;;1.00;;
9481;SDS011;4779;48.062;11.672;2023-04-25T13:46:13;1.43;;;1.00;;
9481;SDS011;4779;48.062;11.672;2023-04-25T13:48:41;1.30;;;1.20;;
9481;SDS011;4779;48.062;11.672;2023-04-25T13:51:15;1.03;;;1.03;;
9481;SDS011;4779;48.062;11.672;2023-04-25T13:53:43;1.10;;;1.10;;
9481;SDS011;4779;48.062;11.672;2023-04-25T13:56:10;0.83;;;0.83;;
9481;SDS011;4779;48.062;11.672;2023-04-25T13:58:37;1.60;;;1.00;;
9481;SDS011;4779;48.062;11.672;2023-04-25T14:01:05;1.20;;;1.10;;
9481;SDS011;4779;48.062;11.672;2023-04-25T14:03:32;1.07;;;0.90;;
9481;SDS011;4779;48.062;11.672;2023-04-25T14:05:59;1.93;;;1.00;;
9481;SDS011;4779;48.062;11.672;2023-04-25T14:08:28;1.20;;;1.10;;
9481;SDS011;4779;48.062;11.672;2023-04-25T14:10:55;1.20;;;1.10;;
9481;SDS011;4779;48.062;11.672;2023-04-25T14:13:22;2.50;;;2.30;;
9481;SDS011;4779;48.062;11.672;2023-04-25T14:15:50;3.03;;;1.77;;
9481;SDS011;4779;48.062;11.672;2023-04-25T14:18:17;1.53;;;1.00;;
9481;SDS011;4779;48.062;11.672;2023-04-25T14:20:44;0.57;;;0.57;;
9481;SDS011;4779;48.062;11.672;2023-04-25T14:23:11;0.60;;;0.60;;
9481;SDS011;4779;48.062;11.672;2023-04-25T14:25:40;0.70;;;0.70;;
9481;SDS011;4779;48.062;11.672;2023-04-25T14:28:08;0.70;;;0.70;;
9481;SDS011;4779;48.062;11.672;2023-04-25T14:30:35;0.70;;;0.70;;
9481;SDS011;4779;48.062;11.672;2023-04-25T14:33:02;0.63;;;0.63;;
9481;SDS011;4779;48.062;11.672;2023-04-25T14:35:29;0.50;;;0.50;;
9481;SDS011;4779;48.062;11.672;2023-04-25T14:37:56;0.50;;;0.50;;
9481;SDS011;4779;48.062;11.672;2023-04-25T14:40:23;1.10;;;0.60;;
9481;SDS011;4779;48.062;11.672;2023-04-25T14:42:51;0.50;;;0.50;;
9481;SDS011;4779;48.062;11.672;2023-04-25T14:45:18;2.27;;;0.70;;
9481;SDS011;4779;48.062;11.672;2023-04-25T14:47:45;0.47;;;0.47;;
9481;SDS011;4779;48.062;11.672;2023-04-25T14:50:12;0.70;;;0.70;;
9481;SDS011;4779;48.062;11.672;2023-04-25T14:52:39;0.60;;;0.60;;
9481;SDS011;4779;48.062;11.672;2023-04-25T14:55:06;0.80;;;0.80;;
9481;SDS011;4779;48.062;11.672;2023-04-25T14:57:34;0.70;;;0.70;;
9481;SDS011;4779;48.062;11.672;2023-04-25T15:00:02;2.90;;;1.03;;
9481;SDS011;4779;48.062;11.672;2023-04-25T15:02:33;1.33;;;1.10;;
9481;SDS011;4779;48.062;11.672;2023-04-25T15:05:01;1.37;;;1.27;;
9481;SDS011;4779;48.062;11.672;2023-04-25T15:07:28;2.07;;;1.20;;
9481;SDS011;4779;48.062;11.672;2023-04-25T15:09:55;1.33;;;1.23;;
9481;SDS011;4779;48.062;11.672;2023-04-25T15:12:22;1.73;;;1.60;;
9481;SDS011;4779;48.062;11.672;2023-04-25T15:14:51;1.30;;;1.20;;
9481;SDS011;4779;48.062;11.672;2023-04-25T15:17:19;1.30;;;1.20;;
9481;SDS011;4779;48.062;11.672;2023-04-25T15:19:46;1.10;;;1.00;;
9481;SDS011;4779;48.062;11.672;2023-04-25T15:22:13;1.60;;;1.50;;
9481;SDS011;4779;48.062;11.672;2023-04-25T15:24:40;0.50;;;0.50;;
9481;SDS011;4779;48.062;11.672;2023-04-25T15:27:07;0.60;;;0.50;;
9481;SDS011;4779;48.062;11.672;2023-04-25T15:29:33;0.60;;;0.60;;
9481;SDS011;4779;48.062;11.672;2023-04-25T15:32:00;0.60;;;0.60;;
9481;SDS011;4779;48.062;11.672;2023-04-25T15:34:29;0.50;;;0.50;;
9481;SDS011;4779;48.062;11.672;2023-04-25T15:36:56;0.67;;;0.67;;
9481;SDS011;4779;48.062;11.672;2023-04-25T15:39:23;0.70;;;0.70;;
9481;SDS011;4779;48.062;11.672;2023-04-25T15:41:50;0.70;;;0.70;;
9481;SDS011;4779;48.062;11.672;2023-04-25T15:44:17;0.80;;;0.80;;
9481;SDS011;4779;48.062;11.672;2023-04-25T15:46:44;0.70;;;0.70;;
9481;SDS011;4779;48.062;11.672;2023-04-25T15:49:11;0.70;;;0.70;;
9481;SDS011;4779;48.062;11.672;2023-04-25T15:51:39;1.07;;;0.80;;